createdAt,value
2023-02-24T00:01:25.001Z,15.60
2023-02-24T00:03:56.849Z,14.77
2023-02-24T00:06:26.448Z,20.43
2023-02-24T00:08:54.185Z,30.73
2023-02-24T00:11:22.178Z,34.13
2023-02-24T00:13:49.920Z,21.90
2023-02-24T00:16:18.814Z,24.55
2023-02-24T00:18:47.048Z,15.23
2023-02-24T00:21:17.799Z,16.15
2023-02-24T00:23:47.750Z,16.17
2023-02-24T00:26:17.882Z,18.45
2023-02-24T00:28:46.034Z,17.75
2023-02-24T00:31:15.608Z,15.43
2023-02-24T00:33:44.413Z,15.93
2023-02-24T00:36:15.021Z,15.45
2023-02-24T00:38:46.767Z,16.55
2023-02-24T00:41:16.254Z,17.70
2023-02-24T00:43:46.723Z,16.65
2023-02-24T00:46:17.275Z,23.45
2023-02-24T00:48:46.927Z,13.43
2023-02-24T00:51:17.883Z,19.38
2023-02-24T00:53:46.929Z,17.05
2023-02-24T00:56:16.177Z,16.10
2023-02-24T00:58:44.861Z,17.90
2023-02-24T01:01:14.512Z,19.58
2023-02-24T01:03:42.826Z,18.80
2023-02-24T01:06:12.406Z,16.38
2023-02-24T01:08:47.635Z,14.57
2023-02-24T01:11:35.222Z,16.80
2023-02-24T01:14:06.208Z,27.70
2023-02-24T01:16:34.436Z,20.08
2023-02-24T01:19:02.254Z,16.13
2023-02-24T01:21:30.112Z,15.15
2023-02-24T01:23:58.425Z,18.65
2023-02-24T01:26:28.844Z,19.08
2023-02-24T01:28:56.630Z,16.20
2023-02-24T01:31:25.356Z,17.00
2023-02-24T01:33:53.399Z,21.30
2023-02-24T01:36:22.875Z,14.45
2023-02-24T01:38:50.634Z,17.70
2023-02-24T01:41:21.253Z,18.20
2023-02-24T01:44:03.516Z,20.63
2023-02-24T01:46:33.177Z,17.85
2023-02-24T01:49:08.320Z,16.05
2023-02-24T01:51:41.980Z,17.15
2023-02-24T01:54:13.160Z,16.08
2023-02-24T01:56:42.176Z,22.63
2023-02-24T01:59:11.635Z,16.33
2023-02-24T02:01:43.003Z,19.98
2023-02-24T02:04:16.880Z,16.33
2023-02-24T02:06:45.205Z,15.73
2023-02-24T02:09:15.263Z,20.35
2023-02-24T02:11:42.851Z,17.65
2023-02-24T02:14:11.861Z,16.98
2023-02-24T02:16:56.458Z,15.77
2023-02-24T02:19:49.751Z,18.88
2023-02-24T02:22:40.211Z,16.02
2023-02-24T02:25:16.369Z,18.70
2023-02-24T02:28:07.265Z,18.17
2023-02-24T02:30:55.524Z,21.42
2023-02-24T02:34:12.683Z,18.25
2023-02-24T02:36:57.026Z,19.80
2023-02-24T02:39:35.320Z,18.58
2023-02-24T02:42:14.718Z,24.42
2023-02-24T02:44:55.865Z,17.00
2023-02-24T02:47:29.457Z,21.42
2023-02-24T02:50:02.504Z,17.00
2023-02-24T02:52:35.571Z,21.58
2023-02-24T02:55:09.313Z,23.10
2023-02-24T02:57:40.138Z,21.67
2023-02-24T03:00:13.896Z,18.73
2023-02-24T03:02:45.996Z,21.60
2023-02-24T03:05:20.263Z,21.67
2023-02-24T03:07:54.648Z,19.17
2023-02-24T03:10:27.547Z,23.98
2023-02-24T03:12:58.397Z,24.25
2023-02-24T03:15:30.287Z,25.98
2023-02-24T03:18:02.798Z,23.73
2023-02-24T03:23:06.130Z,24.15
2023-02-24T03:25:39.534Z,21.40
2023-02-24T03:28:16.245Z,19.05
2023-02-24T03:30:48.055Z,25.52
2023-02-24T03:33:24.229Z,26.60
2023-02-24T03:35:53.271Z,24.30
2023-02-24T03:38:24.345Z,25.23
2023-02-24T03:40:53.400Z,23.10
2023-02-24T03:43:27.085Z,26.30
2023-02-24T03:45:55.951Z,18.50
2023-02-24T03:48:24.781Z,20.02
2023-02-24T03:50:53.942Z,18.25
2023-02-24T03:53:32.478Z,18.77
2023-02-24T03:56:07.023Z,16.05
2023-02-24T03:58:46.158Z,21.38
2023-02-24T04:01:19.864Z,18.92
2023-02-24T04:03:57.626Z,18.38
2023-02-24T04:06:35.020Z,19.95
2023-02-24T04:09:11.738Z,19.48
2023-02-24T04:11:46.940Z,16.23
2023-02-24T04:14:24.703Z,17.25
2023-02-24T04:17:00.962Z,17.95
2023-02-24T04:19:33.125Z,16.42
2023-02-24T04:22:04.640Z,15.27
2023-02-24T04:24:34.648Z,18.25
2023-02-24T04:27:06.277Z,18.55
2023-02-24T04:29:40.406Z,13.55
2023-02-24T04:32:11.236Z,14.73
2023-02-24T04:34:40.335Z,14.43
2023-02-24T04:37:09.602Z,16.15
2023-02-24T04:39:38.436Z,16.63
2023-02-24T04:42:06.559Z,19.77
2023-02-24T04:44:34.329Z,16.45
2023-02-24T04:47:01.864Z,17.17
2023-02-24T04:49:29.506Z,19.98
2023-02-24T04:51:57.197Z,18.75
2023-02-24T04:54:26.110Z,19.20
2023-02-24T04:56:54.028Z,20.23
2023-02-24T04:59:23.321Z,18.13
2023-02-24T05:01:53.029Z,21.02
2023-02-24T05:04:20.870Z,19.75
2023-02-24T05:06:49.279Z,19.13
2023-02-24T05:09:18.543Z,19.42
2023-02-24T05:11:50.324Z,18.95
2023-02-24T05:14:20.867Z,22.53
2023-02-24T05:16:49.928Z,23.83
2023-02-24T05:19:38.200Z,20.25
2023-02-24T05:22:07.025Z,18.90
2023-02-24T05:24:35.317Z,20.92
2023-02-24T05:27:04.316Z,23.60
2023-02-24T05:29:35.572Z,26.92
2023-02-24T05:32:05.646Z,22.67
2023-02-24T05:34:34.403Z,24.45
2023-02-24T05:37:07.062Z,27.52
2023-02-24T05:39:35.106Z,24.00
2023-02-24T05:42:06.685Z,24.65
2023-02-24T05:44:35.679Z,29.52
2023-02-24T05:47:05.396Z,34.45
2023-02-24T05:49:35.019Z,30.00
2023-02-24T05:52:08.847Z,24.27
2023-02-24T05:54:39.903Z,25.92
2023-02-24T05:57:11.985Z,28.92
2023-02-24T05:59:40.979Z,25.35
2023-02-24T06:02:12.340Z,26.75
2023-02-24T06:04:46.541Z,26.65
2023-02-24T06:07:18.979Z,26.02
2023-02-24T06:09:50.031Z,26.50
2023-02-24T06:12:20.822Z,26.58
2023-02-24T06:14:48.981Z,24.65
2023-02-24T06:17:18.514Z,26.35
2023-02-24T06:19:46.853Z,25.35
2023-02-24T06:22:16.024Z,29.90
2023-02-24T06:24:45.211Z,25.38
2023-02-24T06:27:18.034Z,30.30
2023-02-24T06:29:50.011Z,28.23
2023-02-24T06:32:18.548Z,29.50
2023-02-24T06:34:46.510Z,28.15
2023-02-24T06:37:15.858Z,30.50
2023-02-24T06:39:44.029Z,30.30
2023-02-24T06:42:12.908Z,33.33
2023-02-24T06:44:42.654Z,27.15
2023-02-24T06:47:14.053Z,27.67
2023-02-24T06:49:42.711Z,27.63
2023-02-24T06:52:11.822Z,30.80
2023-02-24T06:54:39.704Z,27.77
2023-02-24T06:57:09.795Z,29.15
2023-02-24T06:59:37.358Z,31.38
2023-02-24T07:02:07.906Z,29.92
2023-02-24T07:04:43.664Z,34.33
2023-02-24T07:07:14.064Z,33.70
2023-02-24T07:09:44.046Z,36.72
2023-02-24T07:12:12.622Z,33.45
2023-02-24T07:14:40.943Z,40.42
2023-02-24T07:17:08.987Z,32.58
2023-02-24T07:19:38.110Z,38.20
2023-02-24T07:22:05.667Z,30.63
2023-02-24T07:24:37.099Z,31.10
2023-02-24T07:27:06.355Z,36.60
2023-02-24T07:29:36.021Z,33.75
2023-02-24T07:32:05.911Z,37.47
2023-02-24T07:34:34.192Z,38.05
2023-02-24T07:37:07.915Z,31.25
2023-02-24T07:39:37.496Z,43.85
2023-02-24T07:42:07.595Z,37.60
2023-02-24T07:44:35.203Z,39.03
2023-02-24T07:47:07.674Z,40.33
2023-02-24T07:49:36.141Z,43.80
2023-02-24T07:52:08.071Z,52.92
2023-02-24T07:54:36.209Z,41.20
2023-02-24T07:57:03.849Z,46.88
2023-02-24T07:59:33.553Z,47.40
2023-02-24T08:02:04.741Z,45.72
2023-02-24T08:04:33.833Z,45.30
2023-02-24T08:07:03.350Z,45.67
2023-02-24T08:10:00.533Z,46.15
2023-02-24T08:12:29.754Z,45.83
2023-02-24T08:15:00.216Z,50.20
2023-02-24T08:17:28.305Z,46.85
2023-02-24T08:20:18.753Z,50.78
2023-02-24T08:22:47.360Z,47.78
2023-02-24T08:25:19.429Z,47.58
2023-02-24T08:28:06.753Z,59.97
2023-02-24T08:30:39.605Z,49.08
2023-02-24T08:33:10.455Z,44.60
2023-02-24T08:35:44.610Z,54.95
2023-02-24T08:38:15.624Z,40.90
2023-02-24T08:40:55.078Z,43.42
2023-02-24T08:43:32.905Z,40.35
2023-02-24T08:46:04.390Z,38.45
2023-02-24T08:48:37.353Z,35.25
2023-02-24T08:51:09.706Z,37.85
2023-02-24T08:53:40.565Z,35.70
2023-02-24T08:56:12.863Z,34.05
2023-02-24T08:58:47.025Z,36.47
2023-02-24T09:01:24.086Z,32.75
2023-02-24T09:03:54.759Z,37.83
2023-02-24T09:06:36.403Z,37.13
2023-02-24T09:09:21.098Z,36.75
2023-02-24T09:11:55.691Z,37.90
2023-02-24T09:14:28.566Z,35.10
2023-02-24T09:17:05.401Z,42.88
2023-02-24T09:19:55.889Z,35.88
2023-02-24T09:22:57.278Z,39.50
2023-02-24T09:25:26.061Z,38.70
2023-02-24T09:27:57.098Z,36.25
2023-02-24T09:30:50.940Z,46.33
2023-02-24T09:33:22.298Z,40.17
2023-02-24T09:36:03.005Z,39.00
2023-02-24T09:38:57.780Z,40.88
2023-02-24T09:41:34.187Z,44.55
2023-02-24T09:44:07.912Z,42.78
2023-02-24T09:46:53.836Z,51.13
2023-02-24T09:49:25.509Z,45.08
2023-02-24T09:52:00.492Z,48.53
2023-02-24T09:54:32.716Z,46.53
2023-02-24T09:57:09.208Z,47.38
2023-02-24T10:00:00.951Z,45.70
2023-02-24T10:02:44.284Z,44.55
2023-02-24T10:05:24.763Z,46.03
2023-02-24T10:07:53.204Z,49.05
2023-02-24T10:10:28.205Z,46.25
2023-02-24T10:13:13.103Z,42.47
2023-02-24T10:15:59.120Z,43.28
2023-02-24T10:18:32.901Z,42.80
2023-02-24T10:21:07.462Z,40.22
2023-02-24T10:23:56.410Z,39.70
2023-02-24T10:26:51.252Z,40.28
2023-02-24T10:29:36.349Z,40.97
2023-02-24T10:32:23.513Z,42.45
2023-02-24T10:34:51.436Z,41.95
2023-02-24T10:37:28.693Z,38.13
2023-02-24T10:39:58.706Z,37.53
2023-02-24T10:42:27.635Z,36.80
2023-02-24T10:45:17.557Z,42.47
2023-02-24T10:47:57.411Z,37.58
2023-02-24T10:50:32.127Z,36.30
2023-02-24T10:53:39.851Z,34.70
2023-02-24T10:56:27.382Z,37.92
2023-02-24T11:05:38.138Z,31.27
2023-02-24T11:08:36.527Z,32.60
2023-02-24T11:11:20.254Z,34.00
2023-02-24T11:14:13.433Z,30.63
2023-02-24T11:17:09.831Z,34.75
2023-02-24T11:19:43.973Z,33.35
2023-02-24T11:22:16.237Z,35.88
2023-02-24T11:24:46.118Z,37.80
2023-02-24T11:27:14.953Z,31.83
2023-02-24T11:29:55.034Z,33.83
2023-02-24T11:32:39.669Z,32.22
2023-02-24T11:35:18.178Z,32.45
2023-02-24T11:38:00.484Z,36.45
2023-02-24T11:40:31.812Z,40.83
2023-02-24T11:43:04.620Z,34.78
2023-02-24T11:48:06.528Z,36.63
2023-02-24T11:50:44.476Z,42.38
2023-02-24T11:53:33.698Z,32.15
2023-02-24T11:56:04.728Z,33.10
2023-02-24T11:58:41.849Z,38.35
2023-02-24T12:01:15.995Z,37.83
2023-02-24T12:03:53.680Z,34.25
2023-02-24T12:06:28.088Z,36.03
2023-02-24T12:09:02.688Z,32.42
2023-02-24T12:11:40.146Z,34.08
2023-02-24T12:14:20.038Z,31.33
2023-02-24T12:16:53.957Z,33.65
2023-02-24T12:19:28.613Z,34.83
2023-02-24T12:22:03.040Z,33.78
2023-02-24T12:24:32.048Z,34.97
2023-02-24T12:27:08.482Z,36.25
2023-02-24T12:30:05.571Z,34.60
2023-02-24T12:32:52.243Z,33.63
2023-02-24T12:35:26.764Z,34.97
2023-02-24T12:38:12.396Z,40.55
2023-02-24T12:40:47.950Z,38.97
2023-02-24T12:43:26.246Z,38.53
2023-02-24T12:46:04.250Z,38.78
2023-02-24T12:49:00.164Z,34.80
2023-02-24T12:51:33.522Z,43.15
2023-02-24T12:54:10.786Z,31.80
2023-02-24T12:56:46.630Z,32.58
2023-02-24T12:59:18.303Z,31.17
2023-02-24T13:01:54.953Z,30.73
2023-02-24T13:04:37.187Z,29.13
2023-02-24T13:07:13.306Z,31.70
2023-02-24T13:09:48.177Z,30.80
2023-02-24T13:12:27.123Z,30.75
2023-02-24T13:14:55.000Z,33.92
2023-02-24T13:17:26.929Z,31.70
2023-02-24T13:19:56.368Z,34.15
2023-02-24T13:22:27.968Z,27.48
2023-02-24T13:25:04.433Z,34.38
2023-02-24T13:27:36.041Z,33.22
2023-02-24T13:30:08.212Z,36.03
2023-02-24T13:32:38.494Z,26.80
2023-02-24T13:35:28.119Z,35.80
2023-02-24T13:37:55.678Z,33.65
2023-02-24T13:40:26.544Z,26.50
2023-02-24T13:43:01.065Z,27.50
2023-02-24T13:45:29.935Z,31.98
2023-02-24T13:48:21.952Z,29.85
2023-02-24T13:51:11.314Z,27.10
2023-02-24T13:53:57.678Z,32.20
2023-02-24T13:56:41.094Z,25.52
2023-02-24T13:59:24.149Z,28.13
2023-02-24T14:04:26.830Z,25.20
2023-02-24T14:06:59.425Z,32.22
2023-02-24T14:09:31.959Z,26.88
2023-02-24T14:12:03.941Z,26.73
2023-02-24T14:14:38.920Z,26.33
2023-02-24T14:17:06.462Z,27.65
2023-02-24T14:19:34.010Z,26.67
2023-02-24T14:22:02.291Z,27.63
2023-02-24T14:24:30.093Z,26.85
2023-02-24T14:26:59.807Z,31.00
2023-02-24T14:29:31.932Z,34.00
2023-02-24T14:32:02.348Z,26.80
2023-02-24T14:34:33.917Z,27.95
2023-02-24T14:37:04.575Z,22.90
2023-02-24T14:39:34.197Z,26.63
2023-02-24T14:42:12.869Z,29.48
2023-02-24T14:44:43.692Z,30.02
2023-02-24T14:47:15.204Z,31.17
2023-02-24T14:49:43.521Z,26.65
2023-02-24T14:52:17.533Z,29.45
2023-02-24T14:54:49.093Z,29.45
2023-02-24T14:57:20.739Z,26.27
2023-02-24T14:59:53.285Z,26.48
2023-02-24T15:02:29.716Z,28.23
2023-02-24T15:04:58.322Z,23.20
2023-02-24T15:07:29.701Z,34.13
2023-02-24T15:09:58.207Z,27.17
2023-02-24T15:12:32.079Z,28.27
2023-02-24T15:15:03.793Z,35.80
2023-02-24T15:17:33.274Z,23.10
2023-02-24T15:20:00.824Z,25.92
2023-02-24T15:22:33.184Z,25.13
2023-02-24T15:25:18.616Z,26.15
2023-02-24T15:27:52.248Z,29.67
2023-02-24T15:30:29.613Z,25.85
2023-02-24T15:33:04.888Z,31.38
2023-02-24T15:35:34.277Z,29.88
2023-02-24T15:38:03.117Z,28.85
2023-02-24T15:43:11.859Z,30.10
2023-02-24T15:45:40.944Z,30.15
2023-02-24T15:48:21.947Z,29.08
2023-02-24T15:50:50.552Z,36.70
2023-02-24T15:53:18.245Z,30.90
2023-02-24T15:55:45.892Z,31.00
2023-02-24T15:58:17.842Z,30.70
2023-02-24T16:00:45.802Z,29.80
2023-02-24T16:03:13.470Z,34.10
2023-02-24T16:05:42.327Z,31.58
2023-02-24T16:08:13.961Z,37.03
2023-02-24T16:10:41.760Z,29.42
2023-02-24T16:13:18.400Z,28.75
2023-02-24T16:15:46.493Z,36.90
2023-02-24T16:18:21.927Z,30.77
2023-02-24T16:20:54.291Z,32.92
2023-02-24T16:23:23.023Z,31.73
2023-02-24T16:25:54.510Z,32.03
2023-02-24T16:28:23.449Z,30.52
2023-02-24T16:30:51.896Z,36.85
2023-02-24T16:33:22.553Z,33.97
2023-02-24T16:35:53.280Z,31.45
2023-02-24T16:38:22.605Z,32.67
2023-02-24T16:40:50.922Z,33.03
2023-02-24T16:43:18.700Z,32.28
2023-02-24T16:45:47.298Z,38.28
2023-02-24T16:48:20.593Z,29.60
2023-02-24T16:50:49.196Z,34.33
2023-02-24T16:53:19.770Z,33.80
2023-02-24T16:55:48.353Z,31.48
2023-02-24T16:58:16.627Z,33.85
2023-02-24T17:00:46.714Z,39.20
2023-02-24T17:03:19.106Z,32.70
2023-02-24T17:05:46.844Z,36.33
2023-02-24T17:08:17.359Z,34.83
2023-02-24T17:10:47.343Z,39.75
2023-02-24T17:13:17.186Z,39.58
2023-02-24T17:15:45.095Z,32.78
2023-02-24T17:18:13.101Z,32.58
2023-02-24T17:20:42.210Z,31.83
2023-02-24T17:23:10.940Z,38.13
2023-02-24T17:25:38.719Z,33.28
2023-02-24T17:28:08.288Z,35.47
2023-02-24T17:30:45.796Z,36.13
2023-02-24T17:33:18.971Z,36.20
2023-02-24T17:36:01.486Z,35.05
2023-02-24T17:38:43.684Z,28.77
2023-02-24T17:41:14.772Z,35.88
2023-02-24T17:43:46.681Z,33.60
2023-02-24T17:46:14.600Z,28.92
2023-02-24T17:48:43.697Z,32.15
2023-02-24T17:51:14.812Z,28.05
2023-02-24T17:53:50.703Z,35.42
2023-02-24T17:56:43.159Z,31.42
2023-02-24T17:59:18.179Z,33.38
2023-02-24T18:01:46.391Z,32.60
2023-02-24T18:04:14.721Z,40.92
2023-02-24T18:06:42.735Z,33.28
2023-02-24T18:09:10.362Z,37.10
2023-02-24T18:11:38.026Z,38.30
2023-02-24T18:14:05.604Z,38.67
2023-02-24T18:16:35.236Z,35.60
2023-02-24T18:19:02.811Z,34.65
2023-02-24T18:21:30.338Z,35.60
2023-02-24T18:23:58.533Z,33.38
2023-02-24T18:26:26.579Z,41.00
2023-02-24T18:28:54.984Z,36.25
2023-02-24T18:31:29.858Z,30.70
2023-02-24T18:34:10.867Z,33.30
2023-02-24T18:36:39.298Z,32.55
2023-02-24T18:39:12.927Z,30.95
2023-02-24T18:41:43.786Z,32.33
2023-02-24T18:44:23.954Z,34.72
2023-02-24T18:47:02.393Z,30.27
2023-02-24T18:49:39.722Z,28.92
2023-02-24T18:52:13.238Z,24.92
2023-02-24T18:54:44.647Z,31.65
2023-02-24T18:57:34.802Z,32.17
2023-02-24T19:00:13.969Z,28.65
2023-02-24T19:02:53.732Z,26.65
2023-02-24T19:05:37.862Z,23.55
2023-02-24T19:08:11.016Z,28.27
2023-02-24T19:10:45.267Z,25.08
2023-02-24T19:16:28.244Z,24.05
2023-02-24T19:19:00.744Z,19.48
2023-02-24T19:21:36.210Z,20.40
2023-02-24T19:24:11.981Z,23.65
2023-02-24T19:26:44.554Z,20.75
2023-02-24T19:29:17.576Z,24.65
2023-02-24T19:31:54.047Z,19.92
2023-02-24T19:34:44.654Z,19.67
2023-02-24T19:37:21.365Z,21.95
2023-02-24T19:40:03.438Z,25.00
2023-02-24T19:42:34.730Z,21.13
2023-02-24T19:45:11.719Z,19.10
2023-02-24T19:47:45.216Z,24.65
2023-02-24T19:50:17.081Z,23.50
2023-02-24T19:53:00.734Z,26.20
2023-02-24T19:55:38.421Z,22.15
2023-02-24T19:58:09.583Z,23.17
2023-02-24T20:00:39.343Z,28.52
2023-02-24T20:03:12.282Z,28.17
2023-02-24T20:05:45.758Z,24.55
2023-02-24T20:08:35.416Z,22.92
2023-02-24T20:11:07.066Z,26.55
2023-02-24T20:13:35.290Z,23.70
2023-02-24T20:16:11.796Z,26.23
2023-02-24T20:18:40.745Z,22.17
2023-02-24T20:21:14.906Z,26.77
2023-02-24T20:23:47.027Z,29.20
2023-02-24T20:26:16.645Z,24.35
2023-02-24T20:28:48.278Z,28.63
2023-02-24T20:31:20.585Z,23.67
2023-02-24T20:33:50.533Z,27.05
2023-02-24T20:36:21.864Z,23.75
2023-02-24T20:38:57.771Z,24.25
2023-02-24T20:41:27.766Z,22.67
2023-02-24T20:43:59.304Z,26.55
2023-02-24T20:46:29.795Z,24.27
2023-02-24T20:49:02.201Z,25.55
2023-02-24T20:51:32.476Z,22.77
2023-02-24T20:54:04.318Z,26.30
2023-02-24T20:56:36.145Z,23.00
2023-02-24T20:59:11.460Z,23.23
2023-02-24T21:01:41.071Z,23.65
2023-02-24T21:04:09.500Z,27.52
2023-02-24T21:06:41.406Z,25.00
2023-02-24T21:09:15.543Z,21.77
2023-02-24T21:11:47.294Z,14.30
2023-02-24T21:14:19.526Z,12.43
2023-02-24T21:16:50.685Z,11.02
2023-02-24T21:19:22.748Z,12.93
2023-02-24T21:21:52.244Z,8.93
2023-02-24T21:24:33.080Z,8.32
2023-02-24T21:27:03.348Z,8.43
2023-02-24T21:29:31.322Z,8.77
2023-02-24T21:32:00.561Z,6.10
2023-02-24T21:34:29.134Z,8.07
2023-02-24T21:37:02.126Z,8.40
2023-02-24T21:39:32.543Z,7.18
2023-02-24T21:42:00.398Z,8.27
2023-02-24T21:44:28.882Z,5.25
